Time;durP1;ratioP1;P1;durP2;ratioP2;P2;SDS_P1;SDS_P2;PMS_P1;PMS_P2;Temp;Humidity;BMP_temperature;BMP_pressure;BME280_temperature;BME280_humidity;BME280_pressure;Samples;Min_cycle;Max_cycle;Signal;HPM_P1;HPM_P2
2023/04/19 00:00:47;;;;;;;0.10;0.10;;;10.40;99.90;;;10.51;100.00;100300.44;4890870;29;20236;-77
2023/04/19 00:03:16;;;;;;;0.50;0.35;;;10.10;99.90;;;10.50;100.00;100303.97;4891560;29;20291;-77
2023/04/19 00:05:43;;;;;;;0.10;0.10;;;;;;;10.44;100.00;100303.91;4896553;29;20270;-77
2023/04/19 00:08:11;;;;;;;0.10;0.10;;;;;;;10.43;100.00;100305.66;4896612;29;20238;-77
2023/04/19 00:10:38;;;;;;;0.10;0.10;;;10.20;99.90;;;10.46;100.00;100315.38;4896551;29;20238;-77
2023/04/19 00:13:06;;;;;;;0.15;0.15;;;;;;;10.38;100.00;100320.56;4895188;29;20249;-77
2023/04/19 00:15:33;;;;;;;0.10;0.10;;;10.30;99.90;;;10.39;100.00;100326.75;4895218;29;20354;-77
2023/04/19 00:18:01;;;;;;;0.17;0.17;;;10.20;99.90;;;10.36;100.00;100332.91;4881034;29;20262;-77
2023/04/19 00:20:29;;;;;;;0.10;0.10;;;;;;;10.37;100.00;100341.72;4882795;29;20242;-77
2023/04/19 00:22:57;;;;;;;0.10;0.10;;;;;;;10.37;100.00;100341.72;4911961;29;20286;-78
2023/04/19 00:25:25;;;;;;;0.73;0.73;;;10.20;99.90;;;10.35;100.00;100349.63;4909302;29;20235;-77
2023/04/19 00:27:52;;;;;;;0.10;0.10;;;10.10;99.90;;;10.39;100.00;100361.13;4913194;29;20287;-77
2023/04/19 00:30:20;;;;;;;0.10;0.10;;;;;;;10.34;100.00;100355.78;4913090;29;20693;-77
2023/04/19 00:32:47;;;;;;;0.10;0.10;;;10.10;99.90;;;10.31;100.00;100365.44;4893005;29;20235;-77
2023/04/19 00:35:14;;;;;;;0.10;0.10;;;10.30;99.90;;;10.35;100.00;100369.88;4910002;29;20238;-77
2023/04/19 00:37:42;;;;;;;0.13;0.13;;;;;;;10.32;100.00;100372.50;4894435;29;20576;-77
2023/04/19 00:40:10;;;;;;;0.20;0.20;;;10.20;99.90;;;10.33;100.00;100364.59;4894427;29;20255;-78
2023/04/19 00:42:41;;;;;;;0.10;0.10;;;10.20;99.90;;;10.34;100.00;100371.66;4902459;29;20303;-78
2023/04/19 00:45:09;;;;;;;0.10;0.10;;;10.20;99.90;;;10.33;100.00;100379.56;4891073;29;20243;-76
2023/04/19 00:47:36;;;;;;;0.10;0.10;;;;;;;10.29;100.00;100386.59;4904595;29;20313;-79
2023/04/19 00:50:04;;;;;;;0.10;0.10;;;10.20;99.90;;;10.22;100.00;100392.69;4887839;29;20246;-78
2023/04/19 00:52:33;;;;;;;0.10;0.10;;;10.10;99.90;;;10.24;100.00;100401.50;4910154;29;20245;-77
2023/04/19 00:55:01;;;;;;;0.25;0.25;;;10.10;99.90;;;10.22;100.00;100408.53;4893481;29;20252;-77
2023/04/19 00:57:29;;;;;;;0.10;0.10;;;10.10;99.90;;;10.23;100.00;100421.75;4890490;29;20679;-77
2023/04/19 00:59:57;;;;;;;0.10;0.10;;;;;;;10.17;100.00;100421.66;4893242;29;20243;-77
2023/04/19 01:02:27;;;;;;;0.10;0.10;;;;;;;10.19;100.00;100422.56;4911639;29;20585;-77
2023/04/19 01:04:55;;;;;;;0.00;0.00;;;;;;;10.15;100.00;100430.44;4910183;29;20237;-77
2023/04/19 01:07:22;;;;;;;0.20;0.20;;;;;;;10.14;100.00;100426.91;4898523;29;20286;-77
2023/04/19 01:09:50;;;;;;;0.10;0.10;;;;;;;10.13;100.00;100433.06;4892472;29;20252;-77
2023/04/19 01:12:17;;;;;;;0.10;0.10;;;;;;;10.12;100.00;100439.22;4912066;29;20286;-77
2023/04/19 01:14:44;;;;;;;0.20;0.20;;;;;;;10.13;100.00;100443.66;4912106;29;20239;-77
2023/04/19 01:17:15;;;;;;;0.10;0.10;;;;;;;10.13;100.00;100448.03;4910115;29;20243;-78
2023/04/19 01:19:43;;;;;;;0.10;0.10;;;;;;;10.08;100.00;100444.47;4911048;29;20247;-77
2023/04/19 01:22:18;;;;;;;0.10;0.10;;;9.90;99.90;;;10.08;100.00;100447.09;4912834;29;20254;-77
2023/04/19 01:24:45;;;;;;;0.10;0.10;;;;;;;10.05;100.00;100447.97;4909948;29;20331;-77
2023/04/19 01:27:13;;;;;;;0.10;0.10;;;;;;;10.09;100.00;100455.06;4913467;29;20348;-77
2023/04/19 01:29:40;;;;;;;0.10;0.10;;;;;;;10.14;100.00;100461.28;4893474;29;20263;-77
2023/04/19 01:32:08;;;;;;;0.10;0.10;;;;;;;10.13;100.00;100451.56;4913440;29;20238;-77
2023/04/19 01:34:35;;;;;;;0.30;0.30;;;;;;;10.13;100.00;100448.94;4912208;29;20298;-77
2023/04/19 01:37:02;;;;;;;0.10;0.10;;;;;;;10.07;100.00;100448.88;4912720;29;20251;-77
2023/04/19 01:39:30;;;;;;;0.10;0.10;;;;;;;10.12;100.00;100446.28;4912866;29;20266;-77
2023/04/19 01:41:57;;;;;;;0.13;0.13;;;;;;;10.11;100.00;100445.38;4892413;29;20278;-77
2023/04/19 01:44:25;;;;;;;0.50;0.50;;;;;;;10.12;100.00;100438.34;4900512;29;20334;-78
2023/04/19 01:46:53;;;;;;;0.10;0.10;;;;;;;10.07;100.00;100443.59;4894789;29;20266;-77
2023/04/19 01:49:21;;;;;;;0.10;0.10;;;;;;;10.05;100.00;100447.06;4911376;29;20272;-78
2023/04/19 01:51:48;;;;;;;0.10;0.10;;;;;;;10.05;100.00;100453.25;4909112;29;20626;-77
2023/04/19 01:54:16;;;;;;;0.10;0.10;;;;;;;10.05;100.00;100452.34;4903998;29;20660;-77
2023/04/19 01:56:43;;;;;;;0.30;0.30;;;;;;;10.03;100.00;100448.81;4892940;29;20243;-78
2023/04/19 01:59:11;;;;;;;0.20;0.20;;;9.80;99.90;;;10.01;100.00;100448.78;4893015;29;20235;-77
2023/04/19 02:01:38;;;;;;;0.20;0.20;;;;;;;10.01;100.00;100450.56;4907403;29;20247;-77
2023/04/19 02:04:06;;;;;;;0.10;0.10;;;9.80;99.90;;;10.02;100.00;100455.84;4908046;29;20270;-77
2023/04/19 02:06:34;;;;;;;0.10;0.10;;;;;;;10.05;100.00;100460.28;4906675;29;20322;-77
2023/04/19 02:09:01;;;;;;;0.45;0.45;;;;;;;10.04;100.00;100464.69;4912564;29;20266;-77
2023/04/19 02:11:29;;;;;;;0.20;0.20;;;;;;;10.04;100.00;100475.25;4903052;29;20665;-77
2023/04/19 02:13:56;;;;;;;0.10;0.10;;;;;;;10.00;100.00;100475.19;4911702;29;20282;-77
2023/04/19 02:16:23;;;;;;;0.10;0.10;;;;;;;9.99;100.00;100470.78;4912992;29;20303;-77
2023/04/19 02:18:52;;;;;;;0.30;0.30;;;;;;;9.97;100.00;100465.47;4909141;29;20235;-77
2023/04/19 02:21:19;;;;;;;0.17;0.17;;;;;;;9.99;100.00;100484.00;4907869;29;20231;-77
2023/04/19 02:23:46;;;;;;;0.10;0.10;;;;;;;9.97;100.00;100489.25;4910132;29;20287;-77
2023/04/19 02:26:14;;;;;;;0.00;0.00;;;;;;;9.98;100.00;100498.06;4895207;29;20305;-77
2023/04/19 02:28:41;;;;;;;0.10;0.10;;;;;;;9.93;100.00;100493.63;4893168;29;20231;-77
2023/04/19 02:31:09;;;;;;;0.10;0.10;;;;;;;9.97;100.00;100494.53;4910499;29;20238;-77
2023/04/19 02:33:36;;;;;;;0.10;0.10;;;;;;;9.92;100.00;100488.31;4912673;29;20293;-77
2023/04/19 02:36:04;;;;;;;0.10;0.10;;;;;;;9.93;100.00;100490.09;4899441;29;20235;-77
2023/04/19 02:38:31;;;;;;;0.10;0.10;;;;;;;9.95;100.00;100488.34;4911882;29;20235;-77
2023/04/19 02:41:00;;;;;;;0.10;0.10;;;;;;;9.93;100.00;100490.97;4906523;29;20321;-77
2023/04/19 02:43:27;;;;;;;0.20;0.20;;;;;;;9.89;100.00;100498.84;4913303;29;20231;-78
2023/04/19 02:45:55;;;;;;;0.10;0.10;;;;;;;9.87;100.00;100501.47;4909970;29;20266;-78
2023/04/19 02:48:22;;;;;;;0.10;0.10;;;;;;;9.85;100.00;100508.47;4887307;29;20244;-77
2023/04/19 02:50:50;;;;;;;0.10;0.10;;;;;;;9.84;100.00;100513.75;4909135;29;20274;-77
2023/04/19 02:53:17;;;;;;;0.55;0.55;;;;;;;9.86;100.00;100520.81;4904252;29;20255;-77
2023/04/19 02:55:44;;;;;;;0.10;0.10;;;;;;;9.86;100.00;100518.19;4912929;29;20281;-77
2023/04/19 02:58:12;;;;;;;0.10;0.10;;;;;;;9.85;100.00;100521.69;4873592;29;20235;-77
2023/04/19 03:00:39;;;;;;;0.10;0.10;;;;;;;9.83;100.00;100518.13;4905862;29;20250;-77
2023/04/19 03:03:08;;;;;;;0.10;0.10;;;;;;;9.82;100.00;100516.38;4870690;29;20314;-77
2023/04/19 03:05:36;;;;;;;0.50;0.50;;;;;;;9.85;100.00;100524.34;4906255;29;20234;-77
2023/04/19 03:08:03;;;;;;;0.85;0.63;;;;;;;9.85;100.00;100526.09;4913291;29;20318;-77
2023/04/19 03:10:30;;;;;;;0.00;0.00;;;;;;;9.83;100.00;100525.19;4892248;29;20321;-77
2023/04/19 03:12:58;;;;;;;0.10;0.10;;;;;;;9.84;100.00;100525.19;4910544;29;20287;-78
2023/04/19 03:15:25;;;;;;;0.10;0.10;;;;;;;9.84;100.00;100525.19;4916100;29;20239;-77
2023/04/19 03:17:53;;;;;;;0.03;0.03;;;;;;;9.85;100.00;100520.81;4892934;29;20272;-78
2023/04/19 03:20:20;;;;;;;0.20;0.20;;;9.70;99.90;;;9.85;100.00;100532.25;4911210;29;20235;-77
2023/04/19 03:22:47;;;;;;;0.10;0.10;;;9.50;99.90;;;9.86;100.00;100530.50;4915601;29;20239;-77
2023/04/19 03:25:16;;;;;;;0.35;0.35;;;;;;;9.86;100.00;100515.53;4907742;29;20259;-77
2023/04/19 03:27:46;;;;;;;0.00;0.00;;;;;;;9.87;100.00;100513.78;4915624;29;20334;-77
2023/04/19 03:30:14;;;;;;;0.00;0.00;;;;;;;9.85;100.00;100520.81;4914785;29;20238;-77
2023/04/19 03:32:41;;;;;;;0.35;0.35;;;;;;;9.84;100.00;100514.63;4915326;29;20319;-78
2023/04/19 03:35:09;;;;;;;0.10;0.10;;;;;;;9.84;100.00;100508.47;4904600;29;20235;-77
2023/04/19 03:40:24;;;;;;;0.10;0.10;;;;;;;9.87;100.00;100508.50;4846260;29;20240;-78
2023/04/19 03:42:51;;;;;;;0.17;0.17;;;;;;;9.81;100.00;100508.41;4838426;29;20249;-79
2023/04/19 03:45:19;;;;;;;2.85;0.68;;;;;;;9.78;100.00;100511.03;4838580;29;20253;-77
2023/04/19 03:47:46;;;;;;;0.00;0.00;;;;;;;9.77;100.00;100507.50;4840233;29;20277;-78
2023/04/19 03:50:14;;;;;;;2.50;0.52;;;;;;;9.71;100.00;100515.34;4839205;29;20271;-78
2023/04/19 03:52:45;;;;;;;0.00;0.00;;;;;;;9.72;100.00;100514.47;4822393;29;20330;-76
2023/04/19 03:55:12;;;;;;;0.10;0.10;;;;;;;9.76;100.00;100508.34;4836562;29;20322;-77
2023/04/19 03:57:40;;;;;;;0.13;0.13;;;;;;;9.78;100.00;100519.84;4839697;29;20277;-76
2023/04/19 04:00:08;;;;;;;0.40;0.40;;;9.60;99.90;;;9.72;100.00;100517.09;4837150;29;20238;-76
2023/04/19 04:02:38;;;;;;;0.10;0.10;;;9.60;99.90;;;9.69;100.00;100525.00;4838976;29;20261;-76
2023/04/19 04:05:06;;;;;;;0.15;0.15;;;9.50;99.90;;;9.69;100.00;100537.31;4840010;29;20252;-76
2023/04/19 04:07:34;;;;;;;0.10;0.10;;;;;;;9.62;100.00;100544.25;4839481;29;20242;-76
2023/04/19 04:10:01;;;;;;;0.10;0.10;;;;;;;9.66;100.00;100550.47;4838467;29;20328;-76
2023/04/19 04:12:29;;;;;;;0.05;0.05;;;;;;;9.60;100.00;100551.25;4837449;29;20335;-78
2023/04/19 04:14:56;;;;;;;0.05;0.05;;;;;;;9.58;100.00;100559.16;4838981;29;20261;-76
2023/04/19 04:17:23;;;;;;;0.43;0.43;;;;;;;9.54;100.00;100561.72;4840219;29;20344;-77
2023/04/19 04:19:51;;;;;;;0.52;0.52;;;;;;;9.53;100.00;100568.75;4839067;29;20237;-80
2023/04/19 04:22:19;;;;;;;0.10;0.10;;;;;;;9.48;100.00;100577.47;4885624;23;20311;-77
2023/04/19 04:24:48;;;;;;;0.17;0.17;;;;;;;9.53;100.00;100586.34;4895144;29;20330;-76
2023/04/19 04:27:19;;;;;;;0.13;0.13;;;;;;;9.49;100.00;100585.41;4893580;29;20247;-76
2023/04/19 04:29:48;;;;;;;0.10;0.10;;;;;;;9.48;100.00;100596.84;4876237;29;20243;-77
2023/04/19 04:32:16;;;;;;;0.10;0.10;;;9.20;99.90;;;9.41;100.00;100602.00;4889416;29;20244;-76
2023/04/19 04:34:44;;;;;;;0.10;0.10;;;;;;;9.40;100.00;100618.69;4875575;29;20319;-77
2023/04/19 04:37:12;;;;;;;0.30;0.30;;;;;;;9.39;100.00;100622.19;4876141;29;20247;-75
2023/04/19 04:39:39;;;;;;;0.00;0.00;;;;;;;9.38;100.00;100631.88;4876761;29;20271;-75
2023/04/19 04:42:07;;;;;;;0.10;0.10;;;;;;;9.39;100.00;100643.31;4871844;29;20280;-75
2023/04/19 04:44:35;;;;;;;0.10;0.10;;;9.20;99.90;;;9.33;100.00;100646.75;4864285;29;20244;-76
2023/04/19 04:47:02;;;;;;;0.10;0.10;;;;;;;9.34;100.00;100653.78;4884621;29;20240;-76
2023/04/19 04:49:30;;;;;;;0.10;0.10;;;;;;;9.40;100.00;100666.22;4883720;29;20251;-75
2023/04/19 04:51:57;;;;;;;0.10;0.10;;;;;;;9.39;100.00;100667.97;4891831;29;20240;-75
2023/04/19 04:54:25;;;;;;;0.30;0.20;;;;;;;9.45;100.00;100672.47;4878952;29;20274;-74
2023/04/19 04:56:53;;;;;;;0.10;0.10;;;;;;;9.43;100.00;100680.34;4892078;29;20247;-74
2023/04/19 04:59:20;;;;;;;0.10;0.10;;;;;;;9.47;100.00;100679.53;4855626;29;20251;-78
2023/04/19 05:01:48;;;;;;;0.10;0.10;;;9.20;99.90;;;9.49;100.00;100680.47;4893890;29;20232;-77
2023/04/19 05:04:17;;;;;;;0.00;0.00;;;;;;;9.57;100.00;100693.78;4888200;29;20262;-79
2023/04/19 05:06:45;;;;;;;0.10;0.10;;;;;;;9.57;100.00;100686.75;4858880;29;20339;-76
2023/04/19 05:09:12;;;;;;;0.10;0.10;;;;;;;9.61;100.00;100695.63;4874053;29;20244;-77
2023/04/19 05:11:40;;;;;;;0.10;0.10;;;;;;;9.62;100.00;100700.03;4871209;29;20277;-77
2023/04/19 05:14:07;;;;;;;0.10;0.10;;;;;;;9.67;100.00;100703.66;4872256;29;20232;-77
2023/04/19 05:16:35;;;;;;;0.10;0.10;;;;;;;9.68;100.00;100702.78;4862629;29;20247;-76
2023/04/19 05:19:03;;;;;;;0.10;0.10;;;;;;;9.69;100.00;100707.19;4872350;29;20323;-75
2023/04/19 05:21:32;;;;;;;0.20;0.20;;;;;;;9.74;100.00;100707.28;4892906;29;20274;-78
2023/04/19 05:23:59;;;;;;;0.30;0.30;;;;;;;9.76;100.00;100717.00;4895267;29;20235;-78
2023/04/19 05:26:27;;;;;;;0.10;0.10;;;;;;;9.77;100.00;100720.53;4893729;29;20313;-78
2023/04/19 05:28:55;;;;;;;0.13;0.13;;;;;;;9.76;100.00;100719.66;4897859;29;20318;-77
2023/04/19 05:31:23;;;;;;;0.00;0.00;;;;;;;9.74;100.00;100723.13;4892348;29;20669;-77
2023/04/19 05:33:50;;;;;;;0.20;0.20;;;;;;;9.72;100.00;100720.47;4879140;29;20265;-77
2023/04/19 05:36:19;;;;;;;0.20;0.20;;;;;;;9.75;100.00;100735.47;4895317;29;20232;-78
2023/04/19 05:38:46;;;;;;;0.10;0.10;;;;;;;9.78;100.00;100741.69;4894343;29;20266;-78
2023/04/19 05:41:14;;;;;;;0.08;0.08;;;9.70;99.90;;;9.80;100.00;100745.25;4891711;29;20247;-78
2023/04/19 05:43:42;;;;;;;0.10;0.10;;;;;;;9.82;100.00;100751.44;4898440;29;20701;-77
2023/04/19 05:46:09;;;;;;;0.10;0.10;;;;;;;9.90;100.00;100756.84;4892388;29;20255;-79
2023/04/19 05:48:36;;;;;;;0.28;0.28;;;;;;;9.96;100.00;100749.03;4876398;29;20247;-77
2023/04/19 05:51:04;;;;;;;0.10;0.10;;;;;;;10.01;100.00;100759.69;4889935;29;20343;-75
2023/04/19 05:53:31;;;;;;;0.10;0.10;;;;;;;10.10;100.00;100750.16;4849316;29;20323;-76
2023/04/19 05:55:58;;;;;;;0.40;0.40;;;9.90;99.90;;;10.15;100.00;100740.53;4888594;29;20709;-77
2023/04/19 05:58:26;;;;;;;0.10;0.10;;;;;;;10.24;100.00;100748.63;4892549;29;20236;-78
2023/04/19 06:00:53;;;;;;;0.20;0.20;;;;;;;10.28;100.00;100741.63;4891070;29;20323;-77
2023/04/19 06:03:23;;;;;;;0.10;0.10;;;;;;;10.32;100.00;100739.94;4875782;29;20718;-76
2023/04/19 06:05:56;;;;;;;0.10;0.10;;;;;;;10.43;100.00;100738.38;4875836;29;20730;-77
2023/04/19 06:08:23;;;;;;;0.10;0.10;;;;;;;10.49;100.00;100742.00;4874571;29;20307;-76
2023/04/19 06:10:53;;;;;;;0.10;0.10;;;;;;;10.57;100.00;100742.97;4878217;29;20296;-76
2023/04/19 06:13:26;;;;;;;0.10;0.10;;;;;;;10.62;100.00;100734.22;4865574;29;20264;-76
2023/04/19 06:15:53;;;;;;;0.30;0.30;;;;;;;10.66;100.00;100728.09;4871709;29;20232;-75
2023/04/19 06:18:21;;;;;;;0.10;0.10;;;;;;;10.76;100.00;100738.81;4876926;29;20300;-76
2023/04/19 06:20:48;;;;;;;0.20;0.20;;;;;;;10.78;100.00;100736.19;4875026;29;20311;-75
2023/04/19 06:23:17;;;;;;;2.38;0.40;;;;;;;10.86;100.00;100734.53;4869184;29;20235;-76
2023/04/19 06:25:47;;;;;;;0.10;0.10;;;;;;;11.00;100.00;100738.25;4873938;29;20260;-77
2023/04/19 06:28:15;;;;;;;0.10;0.10;;;;;;;11.11;100.00;100741.91;4872792;29;20240;-76
2023/04/19 06:30:43;;;;;;;0.43;0.43;;;;;;;11.07;100.00;100742.75;4872016;29;20291;-78
2023/04/19 06:33:10;;;;;;;0.10;0.10;;;;;;;11.14;100.00;100733.13;4877614;29;20236;-78
2023/04/19 06:35:38;;;;;;;0.10;0.10;;;;;;;11.21;100.00;100738.50;4876534;29;20288;-77
2023/04/19 06:38:06;;;;;;;0.10;0.10;;;;;;;11.28;100.00;100734.16;4875081;29;20245;-79
2023/04/19 06:40:34;;;;;;;0.40;0.40;;;;;;;11.37;100.00;100728.97;4877754;29;20232;-78
2023/04/19 06:43:01;;;;;;;0.17;0.17;;;11.20;99.90;;;11.34;100.00;100728.03;4872135;29;20778;-77
2023/04/19 06:45:32;;;;;;;0.10;0.10;;;;;;;11.35;100.00;100736.00;4871855;29;20248;-77
2023/04/19 06:47:59;;;;;;;0.10;0.10;;;;;;;11.43;100.00;100736.97;4874526;29;20702;-78
2023/04/19 06:50:27;;;;;;;0.10;0.10;;;11.20;99.90;;;11.26;100.00;100717.38;4876633;29;20244;-78
2023/04/19 06:52:55;;;;;;;0.10;0.10;;;;;;;11.40;100.00;100718.41;4862093;29;20229;-76
2023/04/19 06:55:22;;;;;;;0.50;0.50;;;11.20;99.90;;;11.40;100.00;100710.44;4857821;29;20232;-77
2023/04/19 06:57:50;;;;;;;0.20;0.20;;;;;;;11.48;100.00;100714.06;4870242;29;20233;-77
2023/04/19 07:00:17;;;;;;;0.13;0.13;;;11.40;99.90;;;11.70;100.00;100722.22;4870573;29;20240;-76
2023/04/19 07:02:44;;;;;;;0.10;0.10;;;;;;;11.53;100.00;100683.22;4876999;29;20271;-78
2023/04/19 07:05:12;;;;;;;0.10;0.10;;;;;;;11.69;100.00;100678.03;4877028;29;20251;-77
2023/04/19 07:07:40;;;;;;;0.10;0.10;;;;;;;11.61;100.00;100661.19;4873908;29;20315;-78
2023/04/19 07:10:08;;;;;;;0.10;0.10;;;11.50;99.90;;;11.82;100.00;100656.13;4875025;29;20230;-78
2023/04/19 07:12:35;;;;;;;0.00;0.00;;;;;;;11.95;100.00;100662.41;4871234;29;20268;-77
2023/04/19 07:15:03;;;;;;;0.10;0.10;;;;;;;11.70;100.00;100638.34;4869787;29;20233;-79
2023/04/19 07:17:32;;;;;;;0.10;0.10;;;;;;;11.85;100.00;100635.84;4875317;29;20248;-78
2023/04/19 07:19:59;;;;;;;0.10;0.10;;;;;;;12.04;100.00;100638.63;4853052;29;20624;-78
2023/04/19 07:22:26;;;;;;;0.20;0.20;;;;;;;12.02;100.00;100640.38;4874066;29;20241;-78
2023/04/19 07:24:54;;;;;;;0.50;0.50;;;;;;;12.03;100.00;100632.44;4876492;29;20255;-79
2023/04/19 07:27:21;;;;;;;0.10;0.10;;;;;;;12.19;100.00;100641.34;4868948;29;20231;-78
2023/04/19 07:29:49;;;;;;;0.10;0.10;;;;;;;12.29;100.00;100637.00;4894220;29;20252;-78
2023/04/19 07:32:17;;;;;;;0.90;0.82;;;;;;;12.22;100.00;100617.50;4876952;29;20236;-76
2023/04/19 07:34:45;;;;;;;0.10;0.10;;;;;;;12.29;100.00;100599.88;4872857;29;20244;-76
2023/04/19 07:37:12;;;;;;;0.10;0.10;;;;;;;12.48;100.00;100599.06;4875546;29;20228;-77
2023/04/19 07:39:40;;;;;;;0.17;0.17;;;;;;;12.63;100.00;100582.31;4876149;29;20335;-78
2023/04/19 07:42:07;;;;;;;0.10;0.10;;;;;;;13.05;100.00;100593.06;4873004;29;20236;-78
2023/04/19 07:44:34;;;;;;;0.00;0.00;;;;;;;12.64;100.00;100552.25;4877087;29;20265;-77
2023/04/19 07:47:04;;;;;;;0.10;0.10;;;12.40;99.90;;;12.47;100.00;100545.13;4872499;29;20297;-76
2023/04/19 07:49:33;;;;;;;0.15;0.15;;;;;;;12.53;100.00;100564.59;4869989;29;20241;-77
2023/04/19 07:52:01;;;;;;;0.00;0.00;;;;;;;12.25;100.00;100558.31;4868547;29;20267;-77
2023/04/19 07:54:29;;;;;;;0.10;0.10;;;12.20;99.90;;;12.35;100.00;100570.72;4858232;29;20240;-77
2023/04/19 07:56:57;;;;;;;0.10;0.10;;;;;;;12.21;100.00;100585.69;4871142;29;20337;-78
2023/04/19 07:59:25;;;;;;;0.10;0.10;;;;;;;12.17;100.00;100590.09;4870600;29;20300;-77
2023/04/19 08:01:52;;;;;;;0.20;0.20;;;;;;;12.16;100.00;100596.28;4863109;29;20228;-77
2023/04/19 08:04:21;;;;;;;0.73;0.73;;;;;;;12.07;100.00;100586.50;4873536;29;20243;-78
2023/04/19 08:06:49;;;;;;;0.17;0.17;;;;;;;12.09;100.00;100594.47;4878446;29;20240;-77
2023/04/19 08:09:17;;;;;;;0.50;0.50;;;;;;;12.06;100.00;100607.72;4874377;29;20275;-77
2023/04/19 08:11:44;;;;;;;0.10;0.10;;;;;;;12.29;100.00;100611.38;4867335;29;20245;-77
2023/04/19 08:14:12;;;;;;;0.00;0.00;;;;;;;12.22;100.00;100620.16;4874614;29;20237;-77
2023/04/19 08:16:59;;;;;;;0.10;0.10;;;;;;;12.05;100.00;100622.72;4871768;29;20241;-77
2023/04/19 08:19:29;;;;;;;0.15;0.15;;;;;;;11.95;100.00;100639.44;4872712;29;20247;-78
2023/04/19 08:21:57;;;;;;;0.22;0.22;;;;;;;11.95;100.00;100646.50;4845429;29;20267;-77
2023/04/19 08:24:24;;;;;;;0.10;0.10;;;;;;;12.01;100.00;100663.34;4872016;29;20229;-78
2023/04/19 08:26:55;;;;;;;0.28;0.28;;;;;;;12.23;100.00;100679.38;4870944;29;20280;-76
2023/04/19 08:29:25;;;;;;;0.50;0.50;;;;;;;12.27;100.00;100667.91;4883356;29;20330;-78
2023/04/19 08:31:52;;;;;;;0.10;0.10;;;;;;;12.46;100.00;100672.44;4876472;29;20682;-78
2023/04/19 08:34:20;;;;;;;0.28;0.28;;;;;;;12.54;100.00;100656.56;4872392;29;20228;-77
2023/04/19 08:36:47;;;;;;;0.10;0.10;;;;;;;12.65;100.00;100647.78;4874333;29;20244;-78
2023/04/19 08:39:32;;;;;;;0.10;0.10;;;12.50;99.90;;;12.81;100.00;100644.28;4874117;29;20240;-78
2023/04/19 08:42:06;;;;;;;0.00;0.00;;;12.70;99.90;;;12.94;100.00;100633.72;4870289;29;20277;-77
2023/04/19 08:44:57;;;;;;;0.10;0.10;;;12.70;99.90;;;12.94;100.00;100623.97;4876339;29;20240;-75
2023/04/19 08:47:44;;;;;;;0.00;0.00;;;;;;;12.99;100.00;100614.25;4890797;29;20244;-77
2023/04/19 08:50:26;;;;;;;0.40;0.40;;;;;;;13.14;100.00;100608.13;4862538;29;20243;-77
2023/04/19 08:53:08;;;;;;;0.10;0.10;;;13.00;99.90;;;13.14;100.00;100590.41;4876882;29;20268;-77
2023/04/19 08:55:42;;;;;;;0.15;0.15;;;13.00;99.90;;;13.23;100.00;100591.34;4885287;29;20667;-77
2023/04/19 08:58:31;;;;;;;0.47;0.47;;;;;;;13.53;100.00;100615.25;4894636;29;20257;-78
2023/04/19 09:01:04;;;;;;;0.17;0.17;;;13.30;99.90;;;13.53;100.00;100591.34;4873123;29;20346;-78
2023/04/19 09:03:32;;;;;;;0.20;0.20;;;;;;;13.23;100.00;100556.81;4892386;29;20232;-78
2023/04/19 09:06:13;;;;;;;0.10;0.10;;;;;;;13.29;100.00;100560.34;4879403;29;20243;-79
2023/04/19 09:08:41;;;;;;;0.10;0.10;;;;;;;13.46;100.00;100560.34;4886843;29;20716;-78
2023/04/19 09:11:08;;;;;;;0.10;0.10;;;;;;;13.66;100.00;100550.56;4894463;29;20319;-79
2023/04/19 09:13:37;;;;;;;0.10;0.10;;;;;;;13.49;100.00;100535.56;4892177;29;20269;-78
2023/04/19 09:16:06;;;;;;;0.22;0.22;;;;;;;13.50;100.00;100516.06;4894755;29;20239;-79
2023/04/19 09:18:57;;;;;;;0.20;0.20;;;13.50;99.90;;;13.53;100.00;100505.44;4860687;29;20541;-79
2023/04/19 09:21:45;;;;;;;0.13;0.13;;;;;;;13.44;100.00;100493.94;4878286;29;20323;-79
2023/04/19 09:24:12;;;;;;;0.00;0.00;;;;;;;13.46;100.00;100496.59;4867202;29;20733;-79
2023/04/19 09:26:53;;;;;;;0.10;0.10;;;13.30;99.90;;;13.58;100.00;100496.56;4863159;29;20334;-78
2023/04/19 09:29:21;;;;;;;0.13;0.13;;;;;;;13.59;100.00;100498.34;4873956;29;20247;-78
2023/04/19 09:31:58;;;;;;;0.00;0.00;;;13.50;99.90;;;13.46;100.00;100475.34;4857956;29;20284;-78
2023/04/19 09:34:29;;;;;;;0.65;0.65;;;;;;;13.60;100.00;100462.91;4861913;29;20327;-79
2023/04/19 09:36:56;;;;;;;0.22;0.22;;;;;;;13.85;100.00;100468.13;4876194;29;20236;-78
2023/04/19 09:39:41;;;;;;;0.30;0.30;;;;;;;13.69;100.00;100430.09;4869337;29;20255;-79
2023/04/19 09:42:08;;;;;;;0.10;0.10;;;;;;;13.60;100.00;100408.88;4854488;29;20241;-78
2023/04/19 09:44:36;;;;;;;0.20;0.20;;;;;;;14.12;100.00;100444.09;4874373;29;20235;-78
2023/04/19 09:47:28;;;;;;;0.10;0.10;;;13.80;99.90;;;13.92;100.00;100409.63;4877278;29;20232;-78
2023/04/19 09:50:10;;;;;;;0.00;0.00;;;13.70;99.90;;;14.02;100.00;100403.34;4890192;29;20304;-78
2023/04/19 09:52:51;;;;;;;0.00;0.00;;;;;;;14.04;100.00;100400.69;4894101;29;20228;-78
2023/04/19 09:55:19;;;;;;;2.17;0.52;;;13.80;99.90;;;13.85;100.00;100364.47;4893231;29;20709;-78
2023/04/19 09:57:49;;;;;;;0.10;0.10;;;;;;;13.98;100.00;100377.69;4870613;29;20248;-78
2023/04/19 10:00:16;;;;;;;1.08;0.95;;;;;;;13.93;100.00;100358.22;4886688;29;20246;-78
2023/04/19 10:02:50;;;;;;;0.20;0.20;;;13.70;99.90;;;13.82;100.00;100362.72;4895296;29;20251;-79
2023/04/19 10:05:19;;;;;;;0.15;0.15;;;;;;;13.65;100.00;100360.13;4881588;29;20241;-79
2023/04/19 10:07:52;;;;;;;0.43;0.43;;;13.60;99.90;;;13.68;100.00;100368.09;4878577;29;20232;-78
2023/04/19 10:10:27;;;;;;;0.43;0.43;;;13.30;99.90;;;13.36;100.00;100333.69;4891484;29;20338;-78
2023/04/19 10:13:12;;;;;;;0.00;0.00;;;13.30;99.90;;;13.45;100.00;100333.66;4878197;29;20242;-78
2023/04/19 10:15:43;;;;;;;0.10;0.10;;;;;;;13.12;100.00;100310.72;4888022;29;20322;-79
2023/04/19 10:18:20;;;;;;;0.65;0.40;;;;;;;13.17;100.00;100334.66;4890879;29;20230;-79
2023/04/19 10:20:56;;;;;;;0.10;0.10;;;13.00;99.90;;;13.15;100.00;100328.44;4876360;29;20231;-78
2023/04/19 10:23:23;;;;;;;0.10;0.10;;;13.10;99.90;;;13.25;100.00;100346.13;4889184;29;20247;-79
2023/04/19 10:25:56;;;;;;;0.15;0.15;;;13.10;99.90;;;13.17;100.00;100328.47;4892096;29;20223;-79
2023/04/19 10:28:24;;;;;;;0.00;0.00;;;;;;;13.36;100.00;100332.81;4864986;29;20240;-79
2023/04/19 10:31:02;;;;;;;0.98;0.43;;;13.20;99.90;;;13.29;100.00;100320.44;4862537;29;20250;-79
2023/04/19 10:33:39;;;;;;;0.08;0.08;;;13.10;99.90;;;13.36;100.00;100306.25;4882320;29;20239;-79
2023/04/19 10:36:13;;;;;;;0.10;0.10;;;13.10;99.90;;;13.42;100.00;100292.94;4893363;29;20272;-79
2023/04/19 10:38:45;;;;;;;3.92;0.47;;;;;;;13.81;100.00;100304.25;4880779;29;20240;-78
2023/04/19 10:41:20;;;;;;;0.10;0.10;;;13.40;99.90;;;13.62;100.00;100277.78;4874777;29;20248;-78
2023/04/19 10:44:09;;;;;;;0.00;0.00;;;13.30;99.90;;;13.34;100.00;100228.34;4891696;29;20350;-78
2023/04/19 10:46:39;;;;;;;0.00;0.00;;;13.20;99.90;;;13.34;100.00;100253.13;4890734;29;20239;-78
2023/04/19 10:49:08;;;;;;;0.10;0.10;;;13.00;99.90;;;13.16;100.00;100239.03;4893125;29;20596;-78
2023/04/19 10:51:41;;;;;;;0.10;0.10;;;13.10;99.90;;;13.25;100.00;100257.59;4893589;29;20366;-78
2023/04/19 10:54:28;;;;;;;0.90;0.90;;;13.10;99.90;;;13.08;100.00;100232.00;4871191;29;20244;-78
2023/04/19 10:56:58;;;;;;;0.22;0.22;;;13.00;99.90;;;13.04;100.00;100247.94;4859305;29;20668;-78
2023/04/19 10:59:29;;;;;;;0.45;0.40;;;13.00;99.90;;;13.25;100.00;100252.31;4891362;29;20246;-79
2023/04/19 11:01:59;;;;;;;0.03;0.03;;;12.90;99.90;;;13.01;100.00;100226.72;4882849;29;20744;-79
2023/04/19 11:04:29;;;;;;;1.00;0.93;;;12.70;99.90;;;12.86;100.00;100209.03;4896355;29;20232;-79
2023/04/19 11:07:05;;;;;;;0.10;0.10;;;12.70;99.90;;;12.82;100.00;100208.16;4885224;29;20235;-79
2023/04/19 11:09:38;;;;;;;0.22;0.22;;;12.70;99.90;;;12.91;100.00;100204.59;4895889;29;20276;-79
2023/04/19 11:12:07;;;;;;;0.10;0.10;;;12.70;99.90;;;13.04;100.00;100192.19;4898177;29;20246;-79